sensor_id;sensor_type;location;lat;lon;timestamp;pressure;altitude;pressure_sealevel;temperature;humidity
19795;BME280;10057;59.402;17.866;2022-08-19T00:01:50;101254.34;;;20.76;75.64
19795;BME280;10057;59.402;17.866;2022-08-19T00:04:22;101251.09;;;20.71;75.78
19795;BME280;10057;59.402;17.866;2022-08-19T00:06:51;101247.53;;;20.71;75.97
19795;BME280;10057;59.402;17.866;2022-08-19T00:09:19;101251.00;;;20.73;76.36
19795;BME280;10057;59.402;17.866;2022-08-19T00:11:46;101252.63;;;20.75;76.19
19795;BME280;10057;59.402;17.866;2022-08-19T00:14:15;101247.22;;;20.75;76.46
19795;BME280;10057;59.402;17.866;2022-08-19T00:16:45;101246.97;;;20.78;76.37
19795;BME280;10057;59.402;17.866;2022-08-19T00:19:13;101246.25;;;20.76;76.45
19795;BME280;10057;59.402;17.866;2022-08-19T00:21:40;101256.19;;;20.76;76.18
19795;BME280;10057;59.402;17.866;2022-08-19T00:24:08;101254.44;;;20.75;76.75
19795;BME280;10057;59.402;17.866;2022-08-19T00:26:36;101246.34;;;20.75;76.67
19795;BME280;10057;59.402;17.866;2022-08-19T00:29:04;101249.94;;;20.75;76.92
19795;BME280;10057;59.402;17.866;2022-08-19T00:31:31;101253.69;;;20.73;77.02
19795;BME280;10057;59.402;17.866;2022-08-19T00:33:58;101257.47;;;20.70;76.87
19795;BME280;10057;59.402;17.866;2022-08-19T00:36:24;101250.56;;;20.66;77.25
19795;BME280;10057;59.402;17.866;2022-08-19T00:38:51;101260.59;;;20.64;77.52
19795;BME280;10057;59.402;17.866;2022-08-19T00:41:19;101245.41;;;20.63;77.96
19795;BME280;10057;59.402;17.866;2022-08-19T00:43:59;101245.41;;;20.63;78.17
19795;BME280;10057;59.402;17.866;2022-08-19T00:46:26;101244.41;;;20.64;78.38
19795;BME280;10057;59.402;17.866;2022-08-19T00:48:54;101242.50;;;20.66;78.26
19795;BME280;10057;59.402;17.866;2022-08-19T00:51:22;101241.63;;;20.66;78.22
19795;BME280;10057;59.402;17.866;2022-08-19T00:53:54;101243.56;;;20.64;78.42
19795;BME280;10057;59.402;17.866;2022-08-19T00:56:23;101240.88;;;20.64;78.99
19795;BME280;10057;59.402;17.866;2022-08-19T00:58:50;101245.19;;;20.66;78.88
19795;BME280;10057;59.402;17.866;2022-08-19T01:01:17;101240.31;;;20.71;78.81
19795;BME280;10057;59.402;17.866;2022-08-19T01:03:46;101238.25;;;20.75;78.60
19795;BME280;10057;59.402;17.866;2022-08-19T01:06:25;101238.69;;;20.81;78.96
19795;BME280;10057;59.402;17.866;2022-08-19T01:08:52;101238.38;;;20.86;78.98
19795;BME280;10057;59.402;17.866;2022-08-19T01:11:21;101238.22;;;20.88;78.93
19795;BME280;10057;59.402;17.866;2022-08-19T01:13:48;101231.78;;;20.90;78.85
19795;BME280;10057;59.402;17.866;2022-08-19T01:16:18;101233.47;;;20.91;78.65
19795;BME280;10057;59.402;17.866;2022-08-19T01:18:46;101246.88;;;20.93;78.97
19795;BME280;10057;59.402;17.866;2022-08-19T01:21:34;101230.69;;;20.93;78.82
19795;BME280;10057;59.402;17.866;2022-08-19T01:24:04;101231.53;;;20.93;78.98
19795;BME280;10057;59.402;17.866;2022-08-19T01:26:30;101234.34;;;20.92;79.20
19795;BME280;10057;59.402;17.866;2022-08-19T01:28:59;101227.00;;;20.94;79.36
19795;BME280;10057;59.402;17.866;2022-08-19T01:31:30;101227.00;;;20.94;79.23
19795;BME280;10057;59.402;17.866;2022-08-19T01:33:59;101226.78;;;20.97;79.16
19795;BME280;10057;59.402;17.866;2022-08-19T01:36:32;101219.56;;;20.97;79.28
19795;BME280;10057;59.402;17.866;2022-08-19T01:39:00;101221.03;;;21.01;79.26
19795;BME280;10057;59.402;17.866;2022-08-19T01:41:27;101226.34;;;21.03;79.25
19795;BME280;10057;59.402;17.866;2022-08-19T01:43:54;101230.00;;;21.02;79.44
19795;BME280;10057;59.402;17.866;2022-08-19T01:46:43;101233.44;;;21.04;79.24
19795;BME280;10057;59.402;17.866;2022-08-19T01:49:10;101230.75;;;21.04;79.41
19795;BME280;10057;59.402;17.866;2022-08-19T01:51:37;101226.97;;;21.06;79.57
19795;BME280;10057;59.402;17.866;2022-08-19T01:54:07;101225.00;;;21.09;79.58
19795;BME280;10057;59.402;17.866;2022-08-19T01:56:34;101230.09;;;21.13;79.48
19795;BME280;10057;59.402;17.866;2022-08-19T01:59:08;101219.81;;;21.18;79.44
19795;BME280;10057;59.402;17.866;2022-08-19T02:01:36;101227.91;;;21.18;79.01
19795;BME280;10057;59.402;17.866;2022-08-19T02:04:03;101222.50;;;21.18;79.35
19795;BME280;10057;59.402;17.866;2022-08-19T02:06:31;101225.19;;;21.18;78.97
19795;BME280;10057;59.402;17.866;2022-08-19T02:08:58;101221.50;;;21.19;79.41
19795;BME280;10057;59.402;17.866;2022-08-19T02:11:28;101230.38;;;21.21;79.14
19795;BME280;10057;59.402;17.866;2022-08-19T02:13:55;101223.13;;;21.22;79.13
19795;BME280;10057;59.402;17.866;2022-08-19T02:16:22;101218.81;;;21.19;79.13
19795;BME280;10057;59.402;17.866;2022-08-19T02:18:49;101228.66;;;21.20;79.05
19795;BME280;10057;59.402;17.866;2022-08-19T02:21:17;101225.09;;;21.20;79.24
19795;BME280;10057;59.402;17.866;2022-08-19T02:23:44;101225.19;;;21.18;79.55
19795;BME280;10057;59.402;17.866;2022-08-19T02:26:12;101220.03;;;21.15;79.69
19795;BME280;10057;59.402;17.866;2022-08-19T02:28:39;101218.19;;;21.16;79.50
19795;BME280;10057;59.402;17.866;2022-08-19T02:31:15;101220.78;;;21.17;79.58
19795;BME280;10057;59.402;17.866;2022-08-19T02:33:42;101227.91;;;21.18;79.52
19795;BME280;10057;59.402;17.866;2022-08-19T02:36:11;101226.06;;;21.19;79.71
19795;BME280;10057;59.402;17.866;2022-08-19T02:38:41;101225.19;;;21.18;79.86
19795;BME280;10057;59.402;17.866;2022-08-19T02:41:21;101218.09;;;21.17;79.79
19795;BME280;10057;59.402;17.866;2022-08-19T02:43:51;101221.50;;;21.19;79.51
19795;BME280;10057;59.402;17.866;2022-08-19T02:46:38;101219.72;;;21.20;79.56
19795;BME280;10057;59.402;17.866;2022-08-19T02:49:07;101219.72;;;21.20;79.80
19795;BME280;10057;59.402;17.866;2022-08-19T02:51:36;101215.47;;;21.16;79.72
19795;BME280;10057;59.402;17.866;2022-08-19T02:54:06;101223.72;;;21.14;79.98
19795;BME280;10057;59.402;17.866;2022-08-19T02:56:38;101221.78;;;21.16;79.75
19795;BME280;10057;59.402;17.866;2022-08-19T02:59:06;101209.25;;;21.15;80.27
19795;BME280;10057;59.402;17.866;2022-08-19T03:01:38;101216.38;;;21.16;80.33
19795;BME280;10057;59.402;17.866;2022-08-19T03:04:06;101217.97;;;21.19;80.14
19795;BME280;10057;59.402;17.866;2022-08-19T03:06:36;101218.81;;;21.19;80.29
19795;BME280;10057;59.402;17.866;2022-08-19T03:09:03;101225.19;;;21.18;80.27
19795;BME280;10057;59.402;17.866;2022-08-19T03:11:31;101224.34;;;21.18;80.35
19795;BME280;10057;59.402;17.866;2022-08-19T03:13:59;101219.72;;;21.20;80.31
19795;BME280;10057;59.402;17.866;2022-08-19T03:16:28;101223.03;;;21.23;80.04
19795;BME280;10057;59.402;17.866;2022-08-19T03:18:59;101227.44;;;21.24;80.08
19795;BME280;10057;59.402;17.866;2022-08-19T03:21:30;101229.91;;;21.27;80.34
19795;BME280;10057;59.402;17.866;2022-08-19T03:24:00;101230.56;;;21.31;80.35
19795;BME280;10057;59.402;17.866;2022-08-19T03:26:27;101235.94;;;21.31;80.05
19795;BME280;10057;59.402;17.866;2022-08-19T03:28:54;101234.09;;;21.32;79.88
19795;BME280;10057;59.402;17.866;2022-08-19T03:31:25;101230.41;;;21.33;80.30
19795;BME280;10057;59.402;17.866;2022-08-19T03:34:16;101232.25;;;21.32;80.21
19795;BME280;10057;59.402;17.866;2022-08-19T03:36:45;101233.34;;;21.29;80.05
19795;BME280;10057;59.402;17.866;2022-08-19T03:39:12;101245.03;;;21.30;80.08
19795;BME280;10057;59.402;17.866;2022-08-19T03:41:42;101236.81;;;21.32;80.10
19795;BME280;10057;59.402;17.866;2022-08-19T03:44:12;101236.81;;;21.32;80.16
19795;BME280;10057;59.402;17.866;2022-08-19T03:46:45;101233.13;;;21.33;79.92
19795;BME280;10057;59.402;17.866;2022-08-19T03:49:12;101239.31;;;21.35;80.24
19795;BME280;10057;59.402;17.866;2022-08-19T03:51:41;101235.53;;;21.37;79.91
19795;BME280;10057;59.402;17.866;2022-08-19T03:54:12;101230.13;;;21.37;79.94
19795;BME280;10057;59.402;17.866;2022-08-19T03:56:40;101246.94;;;21.41;79.97
19795;BME280;10057;59.402;17.866;2022-08-19T03:59:10;101242.41;;;21.41;79.69
19795;BME280;10057;59.402;17.866;2022-08-19T04:01:37;101243.28;;;21.42;79.81
19795;BME280;10057;59.402;17.866;2022-08-19T04:04:04;101246.72;;;21.44;79.68
19795;BME280;10057;59.402;17.866;2022-08-19T04:06:35;101244.25;;;21.41;79.75
19795;BME280;10057;59.402;17.866;2022-08-19T04:09:07;101241.56;;;21.41;80.16
19795;BME280;10057;59.402;17.866;2022-08-19T04:11:37;101240.78;;;21.39;80.12
19795;BME280;10057;59.402;17.866;2022-08-19T04:14:15;101240.78;;;21.39;79.96
19795;BME280;10057;59.402;17.866;2022-08-19T04:16:42;101246.19;;;21.39;80.06
19795;BME280;10057;59.402;17.866;2022-08-19T04:19:11;101245.97;;;21.42;80.18
19795;BME280;10057;59.402;17.866;2022-08-19T04:21:39;101246.19;;;21.39;79.78
19795;BME280;10057;59.402;17.866;2022-08-19T04:24:06;101255.81;;;21.30;80.15
19795;BME280;10057;59.402;17.866;2022-08-19T04:26:35;101246.97;;;21.28;80.00
19795;BME280;10057;59.402;17.866;2022-08-19T04:29:10;101247.81;;;21.28;80.44
19795;BME280;10057;59.402;17.866;2022-08-19T04:31:39;101250.53;;;21.28;80.01
19795;BME280;10057;59.402;17.866;2022-08-19T04:34:08;101260.97;;;21.33;80.12
19795;BME280;10057;59.402;17.866;2022-08-19T04:36:39;101257.22;;;21.36;79.73
19795;BME280;10057;59.402;17.866;2022-08-19T04:39:12;101245.44;;;21.37;80.23
19795;BME280;10057;59.402;17.866;2022-08-19T04:41:40;101255.28;;;21.38;79.97
19795;BME280;10057;59.402;17.866;2022-08-19T04:44:25;101259.81;;;21.37;80.11
19795;BME280;10057;59.402;17.866;2022-08-19T04:46:52;101262.38;;;21.39;80.32
19795;BME280;10057;59.402;17.866;2022-08-19T04:49:21;101253.31;;;21.40;80.04
19795;BME280;10057;59.402;17.866;2022-08-19T04:51:50;101254.81;;;21.44;80.42
19795;BME280;10057;59.402;17.866;2022-08-19T04:54:18;101253.59;;;21.48;80.16
19795;BME280;10057;59.402;17.866;2022-08-19T04:57:04;101254.09;;;21.53;79.89
19795;BME280;10057;59.402;17.866;2022-08-19T04:59:33;101254.00;;;21.55;79.95
19795;BME280;10057;59.402;17.866;2022-08-19T05:02:00;101253.88;;;21.56;79.90
19795;BME280;10057;59.402;17.866;2022-08-19T05:04:26;101251.19;;;21.56;79.67
19795;BME280;10057;59.402;17.866;2022-08-19T05:06:59;101254.09;;;21.53;80.02
19795;BME280;10057;59.402;17.866;2022-08-19T05:09:29;101259.63;;;21.51;79.93
19795;BME280;10057;59.402;17.866;2022-08-19T05:12:17;101252.28;;;21.53;80.08
19795;BME280;10057;59.402;17.866;2022-08-19T05:14:45;101244.94;;;21.56;79.98
19795;BME280;10057;59.402;17.866;2022-08-19T05:17:14;101239.41;;;21.57;79.67
19795;BME280;10057;59.402;17.866;2022-08-19T05:20:00;101248.38;;;21.58;79.48
19795;BME280;10057;59.402;17.866;2022-08-19T05:22:47;101241.88;;;21.60;79.63
19795;BME280;10057;59.402;17.866;2022-08-19T05:25:19;101226.56;;;21.61;79.69
19795;BME280;10057;59.402;17.866;2022-08-19T05:27:46;101238.00;;;21.64;79.63
19795;BME280;10057;59.402;17.866;2022-08-19T05:30:13;101244.88;;;21.68;79.71
19795;BME280;10057;59.402;17.866;2022-08-19T05:32:40;101239.25;;;21.71;79.62
19795;BME280;10057;59.402;17.866;2022-08-19T05:35:08;101238.03;;;21.75;79.71
19795;BME280;10057;59.402;17.866;2022-08-19T05:37:35;101241.34;;;21.79;79.34
19795;BME280;10057;59.402;17.866;2022-08-19T05:40:03;101241.34;;;21.79;79.41
19795;BME280;10057;59.402;17.866;2022-08-19T05:42:30;101240.25;;;21.82;79.42
19795;BME280;10057;59.402;17.866;2022-08-19T05:44:57;101240.03;;;21.85;79.22
19795;BME280;10057;59.402;17.866;2022-08-19T05:47:24;101231.78;;;21.86;79.39
19795;BME280;10057;59.402;17.866;2022-08-19T05:49:50;101238.81;;;21.89;79.26
19795;BME280;10057;59.402;17.866;2022-08-19T05:52:17;101230.69;;;21.89;79.21
19795;BME280;10057;59.402;17.866;2022-08-19T05:54:51;101231.56;;;21.89;79.35
19795;BME280;10057;59.402;17.866;2022-08-19T05:57:19;101238.44;;;21.93;79.09
19795;BME280;10057;59.402;17.866;2022-08-19T05:59:45;101239.06;;;21.97;79.18
19795;BME280;10057;59.402;17.866;2022-08-19T06:02:18;101240.53;;;22.01;78.87
19795;BME280;10057;59.402;17.866;2022-08-19T06:04:46;101231.25;;;22.05;78.95
19795;BME280;10057;59.402;17.866;2022-08-19T06:07:12;101237.38;;;22.07;78.63
19795;BME280;10057;59.402;17.866;2022-08-19T06:09:40;101235.41;;;22.09;78.72
19795;BME280;10057;59.402;17.866;2022-08-19T06:12:09;101236.28;;;22.10;78.65
19795;BME280;10057;59.402;17.866;2022-08-19T06:14:36;101237.88;;;22.12;78.35
19795;BME280;10057;59.402;17.866;2022-08-19T06:17:07;101236.69;;;22.16;78.59
19795;BME280;10057;59.402;17.866;2022-08-19T06:19:34;101224.66;;;22.20;78.77
19795;BME280;10057;59.402;17.866;2022-08-19T06:22:06;101223.56;;;22.23;78.48
19795;BME280;10057;59.402;17.866;2022-08-19T06:24:34;101224.19;;;22.27;78.35
19795;BME280;10057;59.402;17.866;2022-08-19T06:27:03;101236.22;;;22.34;78.33
19795;BME280;10057;59.402;17.866;2022-08-19T06:29:32;101234.75;;;22.41;78.28
19795;BME280;10057;59.402;17.866;2022-08-19T06:32:00;101223.56;;;22.45;78.23
19795;BME280;10057;59.402;17.866;2022-08-19T06:34:29;101221.72;;;22.46;78.06
19795;BME280;10057;59.402;17.866;2022-08-19T06:36:58;101224.19;;;22.49;78.04
19795;BME280;10057;59.402;17.866;2022-08-19T06:39:30;101233.91;;;22.52;77.90
19795;BME280;10057;59.402;17.866;2022-08-19T06:42:00;101239.06;;;22.55;78.04
19795;BME280;10057;59.402;17.866;2022-08-19T06:44:28;101243.13;;;22.60;77.88
19795;BME280;10057;59.402;17.866;2022-08-19T06:46:57;101237.22;;;22.66;77.98
19795;BME280;10057;59.402;17.866;2022-08-19T06:49:24;101240.66;;;22.68;77.79
19795;BME280;10057;59.402;17.866;2022-08-19T06:51:53;101249.28;;;22.74;77.63
19795;BME280;10057;59.402;17.866;2022-08-19T06:54:23;101241.63;;;22.79;77.58
19795;BME280;10057;59.402;17.866;2022-08-19T06:57:00;101233.88;;;22.85;77.42
19795;BME280;10057;59.402;17.866;2022-08-19T06:59:31;101236.09;;;22.91;77.14
19795;BME280;10057;59.402;17.866;2022-08-19T07:02:02;101241.16;;;22.96;77.23
19795;BME280;10057;59.402;17.866;2022-08-19T07:04:33;101243.38;;;23.02;77.05
19795;BME280;10057;59.402;17.866;2022-08-19T07:07:09;101238.44;;;23.07;76.96
19795;BME280;10057;59.402;17.866;2022-08-19T07:09:46;101241.38;;;23.15;76.72
19795;BME280;10057;59.402;17.866;2022-08-19T07:12:26;101237.28;;;23.21;76.52
19795;BME280;10057;59.402;17.866;2022-08-19T07:14:55;101239.38;;;23.29;76.56
19795;BME280;10057;59.402;17.866;2022-08-19T07:17:23;101246.13;;;23.34;76.35
19795;BME280;10057;59.402;17.866;2022-08-19T07:19:50;101245.34;;;23.44;76.16
19795;BME280;10057;59.402;17.866;2022-08-19T07:22:20;101243.75;;;23.52;75.77
19795;BME280;10057;59.402;17.866;2022-08-19T07:24:50;101251.06;;;23.61;75.62
19795;BME280;10057;59.402;17.866;2022-08-19T07:27:18;101248.75;;;23.68;75.01
19795;BME280;10057;59.402;17.866;2022-08-19T07:29:52;101248.81;;;23.78;74.86
19795;BME280;10057;59.402;17.866;2022-08-19T07:32:22;101248.16;;;23.85;74.59
19795;BME280;10057;59.402;17.866;2022-08-19T07:34:49;101252.81;;;23.95;74.27
19795;BME280;10057;59.402;17.866;2022-08-19T07:37:15;101263.72;;;24.04;74.25
19795;BME280;10057;59.402;17.866;2022-08-19T07:39:42;101248.66;;;24.11;73.62
19795;BME280;10057;59.402;17.866;2022-08-19T07:42:10;101249.81;;;24.19;73.54
19795;BME280;10057;59.402;17.866;2022-08-19T07:44:39;101241.03;;;24.26;73.39
19795;BME280;10057;59.402;17.866;2022-08-19T07:47:11;101239.38;;;24.35;72.93
19795;BME280;10057;59.402;17.866;2022-08-19T07:49:59;101238.31;;;24.47;72.79
19795;BME280;10057;59.402;17.866;2022-08-19T07:52:28;101229.38;;;24.56;72.60
19795;BME280;10057;59.402;17.866;2022-08-19T07:54:55;101232.97;;;24.67;72.20
19795;BME280;10057;59.402;17.866;2022-08-19T07:57:21;101238.44;;;24.76;71.67
19795;BME280;10057;59.402;17.866;2022-08-19T07:59:48;101228.34;;;24.88;71.72
19795;BME280;10057;59.402;17.866;2022-08-19T08:02:15;101230.81;;;25.01;71.25
19795;BME280;10057;59.402;17.866;2022-08-19T08:04:41;101234.28;;;25.13;71.21
19795;BME280;10057;59.402;17.866;2022-08-19T08:07:26;101232.31;;;25.24;70.50
19795;BME280;10057;59.402;17.866;2022-08-19T08:10:12;101232.19;;;25.36;69.94
19795;BME280;10057;59.402;17.866;2022-08-19T08:12:46;101235.78;;;25.46;69.78
19795;BME280;10057;59.402;17.866;2022-08-19T08:15:33;101230.91;;;25.59;69.23
19795;BME280;10057;59.402;17.866;2022-08-19T08:18:06;101223.19;;;25.74;69.09
19795;BME280;10057;59.402;17.866;2022-08-19T08:20:34;101227.78;;;25.93;68.42
19795;BME280;10057;59.402;17.866;2022-08-19T08:23:01;101230.31;;;26.14;67.74
19795;BME280;10057;59.402;17.866;2022-08-19T08:25:46;101221.69;;;26.48;66.92
19795;BME280;10057;59.402;17.866;2022-08-19T08:28:15;101220.81;;;26.84;65.71
19795;BME280;10057;59.402;17.866;2022-08-19T08:30:43;101213.59;;;27.11;65.15
19795;BME280;10057;59.402;17.866;2022-08-19T08:33:13;101219.44;;;27.26;64.19
19795;BME280;10057;59.402;17.866;2022-08-19T08:35:45;101214.84;;;27.26;64.18
19795;BME280;10057;59.402;17.866;2022-08-19T08:38:12;101214.28;;;27.23;64.28
19795;BME280;10057;59.402;17.866;2022-08-19T08:40:43;101226.34;;;27.20;64.23
19795;BME280;10057;59.402;17.866;2022-08-19T08:43:24;101222.22;;;27.16;64.39
19795;BME280;10057;59.402;17.866;2022-08-19T08:46:12;101209.63;;;27.15;63.84
19795;BME280;10057;59.402;17.866;2022-08-19T08:49:26;101216.22;;;27.12;63.96
19795;BME280;10057;59.402;17.866;2022-08-19T08:52:13;101210.78;;;27.12;64.00
19795;BME280;10057;59.402;17.866;2022-08-19T08:54:44;101220.50;;;27.15;63.52
19795;BME280;10057;59.402;17.866;2022-08-19T08:57:31;101219.19;;;27.19;63.35
19795;BME280;10057;59.402;17.866;2022-08-19T09:00:12;101219.88;;;27.21;63.17
19795;BME280;10057;59.402;17.866;2022-08-19T09:02:42;101213.13;;;27.25;62.74
19795;BME280;10057;59.402;17.866;2022-08-19T09:05:10;101216.41;;;27.29;62.54
19795;BME280;10057;59.402;17.866;2022-08-19T09:10:29;101204.56;;;27.38;61.92
19795;BME280;10057;59.402;17.866;2022-08-19T09:15:55;101204.16;;;27.51;61.74
19795;BME280;10057;59.402;17.866;2022-08-19T09:18:23;101207.31;;;27.56;61.50
19795;BME280;10057;59.402;17.866;2022-08-19T09:20:55;101206.66;;;27.62;61.25
19795;BME280;10057;59.402;17.866;2022-08-19T09:23:22;101202.63;;;27.66;60.67
19795;BME280;10057;59.402;17.866;2022-08-19T09:25:52;101199.94;;;27.74;60.81
19795;BME280;10057;59.402;17.866;2022-08-19T09:28:20;101200.03;;;27.82;60.04
19795;BME280;10057;59.402;17.866;2022-08-19T09:30:52;101205.56;;;27.91;59.07
19795;BME280;10057;59.402;17.866;2022-08-19T09:33:19;101209.38;;;27.98;59.21
19795;BME280;10057;59.402;17.866;2022-08-19T09:35:46;101209.41;;;28.06;58.79
19795;BME280;10057;59.402;17.866;2022-08-19T09:38:20;101216.66;;;28.15;58.38
19795;BME280;10057;59.402;17.866;2022-08-19T09:40:46;101215.84;;;28.23;58.35
19795;BME280;10057;59.402;17.866;2022-08-19T09:43:13;101208.25;;;28.34;58.05
19795;BME280;10057;59.402;17.866;2022-08-19T09:46:00;101210.41;;;28.49;57.45
19795;BME280;10057;59.402;17.866;2022-08-19T09:48:27;101223.44;;;28.63;57.02
19795;BME280;10057;59.402;17.866;2022-08-19T09:50:53;101214.28;;;28.80;56.32
19795;BME280;10057;59.402;17.866;2022-08-19T09:53:20;101221.69;;;28.96;56.45
19795;BME280;10057;59.402;17.866;2022-08-19T09:55:51;101205.41;;;29.21;56.27
19795;BME280;10057;59.402;17.866;2022-08-19T09:58:17;101205.78;;;29.59;55.70
19795;BME280;10057;59.402;17.866;2022-08-19T10:00:49;101208.72;;;30.06;54.71
19795;BME280;10057;59.402;17.866;2022-08-19T10:03:17;101202.47;;;30.53;53.65
19795;BME280;10057;59.402;17.866;2022-08-19T10:05:43;101190.69;;;30.92;52.69
19795;BME280;10057;59.402;17.866;2022-08-19T10:08:29;101182.66;;;31.13;51.69
19795;BME280;10057;59.402;17.866;2022-08-19T10:10:57;101177.19;;;31.13;50.98
19795;BME280;10057;59.402;17.866;2022-08-19T10:13:26;101183.03;;;31.10;50.73
19795;BME280;10057;59.402;17.866;2022-08-19T10:15:55;101172.69;;;30.98;50.60
19795;BME280;10057;59.402;17.866;2022-08-19T10:18:24;101173.78;;;30.80;50.14
19795;BME280;10057;59.402;17.866;2022-08-19T10:20:52;101173.50;;;30.67;50.74
19795;BME280;10057;59.402;17.866;2022-08-19T10:23:27;101179.53;;;30.54;50.74
19795;BME280;10057;59.402;17.866;2022-08-19T10:26:00;101173.41;;;30.44;51.06
19795;BME280;10057;59.402;17.866;2022-08-19T10:28:26;101187.78;;;30.38;50.91
19795;BME280;10057;59.402;17.866;2022-08-19T10:30:55;101185.06;;;30.38;50.10
19795;BME280;10057;59.402;17.866;2022-08-19T10:33:22;101185.75;;;30.40;49.62
19795;BME280;10057;59.402;17.866;2022-08-19T10:36:13;101177.84;;;30.45;49.54
19795;BME280;10057;59.402;17.866;2022-08-19T10:38:48;101171.66;;;30.51;49.70
19795;BME280;10057;59.402;17.866;2022-08-19T10:41:23;101162.75;;;30.57;49.31
19795;BME280;10057;59.402;17.866;2022-08-19T10:43:55;101168.19;;;30.65;49.27
19795;BME280;10057;59.402;17.866;2022-08-19T10:46:29;101167.84;;;30.68;49.27
19795;BME280;10057;59.402;17.866;2022-08-19T10:49:01;101167.47;;;30.72;48.42
19795;BME280;10057;59.402;17.866;2022-08-19T10:51:28;101170.53;;;30.77;49.07
19795;BME280;10057;59.402;17.866;2022-08-19T10:54:14;101177.22;;;30.82;48.35
19795;BME280;10057;59.402;17.866;2022-08-19T10:56:44;101158.88;;;30.83;47.63
19795;BME280;10057;59.402;17.866;2022-08-19T10:59:25;101155.50;;;30.81;47.02
19795;BME280;10057;59.402;17.866;2022-08-19T11:02:04;101158.88;;;30.83;47.52
19795;BME280;10057;59.402;17.866;2022-08-19T11:04:30;101156.13;;;30.91;46.83
19795;BME280;10057;59.402;17.866;2022-08-19T11:06:58;101160.34;;;30.93;46.73
19795;BME280;10057;59.402;17.866;2022-08-19T11:09:26;101159.88;;;30.90;46.64
19795;BME280;10057;59.402;17.866;2022-08-19T11:11:59;101168.28;;;30.88;46.45
19795;BME280;10057;59.402;17.866;2022-08-19T11:14:28;101157.31;;;30.88;46.29
19795;BME280;10057;59.402;17.866;2022-08-19T11:17:00;101159.16;;;30.96;46.28
19795;BME280;10057;59.402;17.866;2022-08-19T11:19:26;101168.00;;;31.06;46.08
19795;BME280;10057;59.402;17.866;2022-08-19T11:21:53;101147.53;;;31.17;45.79
19795;BME280;10057;59.402;17.866;2022-08-19T11:24:25;101150.03;;;31.27;45.13
19795;BME280;10057;59.402;17.866;2022-08-19T11:26:55;101140.59;;;31.29;44.78
19795;BME280;10057;59.402;17.866;2022-08-19T11:29:27;101144.19;;;31.30;44.70
19795;BME280;10057;59.402;17.866;2022-08-19T11:31:54;101143.16;;;31.31;44.53
19795;BME280;10057;59.402;17.866;2022-08-19T11:34:24;101137.19;;;31.27;44.19
19795;BME280;10057;59.402;17.866;2022-08-19T11:36:53;101147.50;;;31.25;44.40
19795;BME280;10057;59.402;17.866;2022-08-19T11:39:25;101142.88;;;31.26;43.93
19795;BME280;10057;59.402;17.866;2022-08-19T11:41:52;101143.16;;;31.31;44.22
19795;BME280;10057;59.402;17.866;2022-08-19T11:44:19;101144.84;;;31.40;43.97
19795;BME280;10057;59.402;17.866;2022-08-19T11:46:46;101145.06;;;31.53;44.23
19795;BME280;10057;59.402;17.866;2022-08-19T11:49:15;101137.34;;;31.72;43.12
19795;BME280;10057;59.402;17.866;2022-08-19T11:51:43;101135.66;;;31.85;42.95
19795;BME280;10057;59.402;17.866;2022-08-19T11:54:11;101138.66;;;31.99;42.50
19795;BME280;10057;59.402;17.866;2022-08-19T11:56:39;101138.19;;;31.95;42.09
19795;BME280;10057;59.402;17.866;2022-08-19T11:59:06;101140.66;;;31.90;42.78
19795;BME280;10057;59.402;17.866;2022-08-19T12:01:39;101141.50;;;31.91;42.27
19795;BME280;10057;59.402;17.866;2022-08-19T12:04:09;101138.75;;;31.91;42.09
19795;BME280;10057;59.402;17.866;2022-08-19T12:06:38;101132.31;;;31.98;42.43
19795;BME280;10057;59.402;17.866;2022-08-19T12:09:07;101140.91;;;32.10;41.80
19795;BME280;10057;59.402;17.866;2022-08-19T12:11:36;101132.03;;;32.23;41.79
19795;BME280;10057;59.402;17.866;2022-08-19T12:14:04;101133.66;;;32.32;41.33
19795;BME280;10057;59.402;17.866;2022-08-19T12:16:31;101132.97;;;32.30;40.73
19795;BME280;10057;59.402;17.866;2022-08-19T12:18:59;101134.41;;;32.26;40.60
19795;BME280;10057;59.402;17.866;2022-08-19T12:21:32;101136.00;;;32.20;40.68
19795;BME280;10057;59.402;17.866;2022-08-19T12:23:59;101135.63;;;32.23;40.40
19795;BME280;10057;59.402;17.866;2022-08-19T12:26:28;101133.47;;;32.19;39.81
19795;BME280;10057;59.402;17.866;2022-08-19T12:28:55;101139.59;;;32.06;40.17
19795;BME280;10057;59.402;17.866;2022-08-19T12:31:22;101136.13;;;31.97;40.31
19795;BME280;10057;59.402;17.866;2022-08-19T12:33:48;101148.19;;;31.88;40.32
19795;BME280;10057;59.402;17.866;2022-08-19T12:36:16;101139.16;;;31.79;40.66
19795;BME280;10057;59.402;17.866;2022-08-19T12:38:44;101139.16;;;31.79;40.75
19795;BME280;10057;59.402;17.866;2022-08-19T12:41:13;101135.88;;;31.84;40.77
19795;BME280;10057;59.402;17.866;2022-08-19T12:43:40;101135.66;;;31.85;40.86
19795;BME280;10057;59.402;17.866;2022-08-19T12:46:09;101131.03;;;31.86;40.63
19795;BME280;10057;59.402;17.866;2022-08-19T12:48:37;101140.13;;;31.86;40.90
19795;BME280;10057;59.402;17.866;2022-08-19T12:51:16;101132.06;;;31.85;40.62
19795;BME280;10057;59.402;17.866;2022-08-19T12:53:48;101139.84;;;31.81;40.73
19795;BME280;10057;59.402;17.866;2022-08-19T12:56:15;101134.25;;;31.75;40.69
19795;BME280;10057;59.402;17.866;2022-08-19T12:58:48;101133.09;;;31.69;40.54
19795;BME280;10057;59.402;17.866;2022-08-19T13:01:18;101132.59;;;31.66;40.38
19795;BME280;10057;59.402;17.866;2022-08-19T13:03:49;101119.66;;;31.59;40.55